sensor_id;sensor_type;location;lat;lon;timestamp;temperature;humidity
4374;DHT22;2201;51.100;6.814;2023-02-01T00:00:57;6.30;98.20
4374;DHT22;2201;51.100;6.814;2023-02-01T00:03:24;6.30;98.20
4374;DHT22;2201;51.100;6.814;2023-02-01T00:05:55;6.30;98.20
4374;DHT22;2201;51.100;6.814;2023-02-01T00:08:23;6.30;98.20
4374;DHT22;2201;51.100;6.814;2023-02-01T00:10:58;6.30;98.20
4374;DHT22;2201;51.100;6.814;2023-02-01T00:13:27;6.30;98.20
4374;DHT22;2201;51.100;6.814;2023-02-01T00:15:54;6.40;98.20
4374;DHT22;2201;51.100;6.814;2023-02-01T00:18:22;6.40;98.20
4374;DHT22;2201;51.100;6.814;2023-02-01T00:20:49;6.40;98.20
4374;DHT22;2201;51.100;6.814;2023-02-01T00:23:16;6.40;98.20
4374;DHT22;2201;51.100;6.814;2023-02-01T00:25:43;6.40;98.20
4374;DHT22;2201;51.100;6.814;2023-02-01T00:28:10;6.40;98.20
4374;DHT22;2201;51.100;6.814;2023-02-01T00:30:38;6.40;98.20
4374;DHT22;2201;51.100;6.814;2023-02-01T00:33:05;6.40;98.20
4374;DHT22;2201;51.100;6.814;2023-02-01T00:35:35;6.40;98.20
4374;DHT22;2201;51.100;6.814;2023-02-01T00:38:02;6.40;98.20
4374;DHT22;2201;51.100;6.814;2023-02-01T00:40:29;6.40;98.20
4374;DHT22;2201;51.100;6.814;2023-02-01T00:42:56;6.40;98.20
4374;DHT22;2201;51.100;6.814;2023-02-01T00:45:23;6.40;98.20
4374;DHT22;2201;51.100;6.814;2023-02-01T00:47:50;6.40;98.20
4374;DHT22;2201;51.100;6.814;2023-02-01T00:50:17;6.30;98.20
4374;DHT22;2201;51.100;6.814;2023-02-01T00:52:45;6.30;98.20
4374;DHT22;2201;51.100;6.814;2023-02-01T00:55:12;6.20;98.20
4374;DHT22;2201;51.100;6.814;2023-02-01T00:57:39;6.20;98.20
4374;DHT22;2201;51.100;6.814;2023-02-01T01:00:07;6.10;98.20
4374;DHT22;2201;51.100;6.814;2023-02-01T01:02:34;6.10;98.20
4374;DHT22;2201;51.100;6.814;2023-02-01T01:05:01;6.00;98.20
4374;DHT22;2201;51.100;6.814;2023-02-01T01:07:28;6.00;98.20
4374;DHT22;2201;51.100;6.814;2023-02-01T01:09:58;5.90;98.20
4374;DHT22;2201;51.100;6.814;2023-02-01T01:12:25;5.90;98.20
4374;DHT22;2201;51.100;6.814;2023-02-01T01:14:52;5.80;98.20
4374;DHT22;2201;51.100;6.814;2023-02-01T01:17:19;5.80;98.20
4374;DHT22;2201;51.100;6.814;2023-02-01T01:19:46;5.80;98.20
4374;DHT22;2201;51.100;6.814;2023-02-01T01:22:13;5.80;98.20
4374;DHT22;2201;51.100;6.814;2023-02-01T01:24:40;5.70;98.20
4374;DHT22;2201;51.100;6.814;2023-02-01T01:27:08;5.70;98.20
4374;DHT22;2201;51.100;6.814;2023-02-01T01:29:36;5.70;98.20
4374;DHT22;2201;51.100;6.814;2023-02-01T01:32:03;5.70;98.20
4374;DHT22;2201;51.100;6.814;2023-02-01T01:34:30;5.70;98.20
4374;DHT22;2201;51.100;6.814;2023-02-01T01:36:57;5.70;98.20
4374;DHT22;2201;51.100;6.814;2023-02-01T01:39:24;5.70;98.20
4374;DHT22;2201;51.100;6.814;2023-02-01T01:41:51;5.60;98.20
4374;DHT22;2201;51.100;6.814;2023-02-01T01:47:24;5.60;98.20
4374;DHT22;2201;51.100;6.814;2023-02-01T01:49:52;5.60;98.20
4374;DHT22;2201;51.100;6.814;2023-02-01T01:52:19;5.60;98.20
4374;DHT22;2201;51.100;6.814;2023-02-01T01:54:49;5.50;98.20
4374;DHT22;2201;51.100;6.814;2023-02-01T01:57:20;5.50;98.20
4374;DHT22;2201;51.100;6.814;2023-02-01T01:59:53;5.50;98.20
4374;DHT22;2201;51.100;6.814;2023-02-01T02:02:21;5.50;98.20
4374;DHT22;2201;51.100;6.814;2023-02-01T02:04:49;5.50;98.20
4374;DHT22;2201;51.100;6.814;2023-02-01T02:07:19;5.50;98.20
4374;DHT22;2201;51.100;6.814;2023-02-01T02:09:47;5.50;98.20
4374;DHT22;2201;51.100;6.814;2023-02-01T02:12:14;5.50;98.20
4374;DHT22;2201;51.100;6.814;2023-02-01T02:14:41;5.50;98.20
4374;DHT22;2201;51.100;6.814;2023-02-01T02:17:23;5.50;98.20
4374;DHT22;2201;51.100;6.814;2023-02-01T02:23:43;5.50;98.20
4374;DHT22;2201;51.100;6.814;2023-02-01T02:29:54;5.50;98.20
4374;DHT22;2201;51.100;6.814;2023-02-01T02:32:47;5.50;98.20
4374;DHT22;2201;51.100;6.814;2023-02-01T02:35:26;5.50;98.20
4374;DHT22;2201;51.100;6.814;2023-02-01T02:38:05;5.50;98.20
4374;DHT22;2201;51.100;6.814;2023-02-01T02:40:45;5.50;98.20
4374;DHT22;2201;51.100;6.814;2023-02-01T02:43:21;5.50;98.20
4374;DHT22;2201;51.100;6.814;2023-02-01T02:46:07;5.50;98.20
4374;DHT22;2201;51.100;6.814;2023-02-01T02:49:02;5.50;98.20
4374;DHT22;2201;51.100;6.814;2023-02-01T02:51:35;5.50;98.20
4374;DHT22;2201;51.100;6.814;2023-02-01T02:54:23;5.50;98.20
4374;DHT22;2201;51.100;6.814;2023-02-01T02:57:12;5.50;98.20
4374;DHT22;2201;51.100;6.814;2023-02-01T03:00:00;5.60;98.20
4374;DHT22;2201;51.100;6.814;2023-02-01T03:02:46;5.50;98.20
4374;DHT22;2201;51.100;6.814;2023-02-01T03:05:35;5.50;98.20
4374;DHT22;2201;51.100;6.814;2023-02-01T03:08:08;5.50;98.20
4374;DHT22;2201;51.100;6.814;2023-02-01T03:10:42;5.50;98.20
4374;DHT22;2201;51.100;6.814;2023-02-01T03:13:18;5.50;98.20
4374;DHT22;2201;51.100;6.814;2023-02-01T03:15:51;5.50;98.20
4374;DHT22;2201;51.100;6.814;2023-02-01T03:18:26;5.50;98.20
4374;DHT22;2201;51.100;6.814;2023-02-01T03:20:55;5.40;98.20
4374;DHT22;2201;51.100;6.814;2023-02-01T03:23:29;5.40;98.20
4374;DHT22;2201;51.100;6.814;2023-02-01T03:25:59;5.40;98.20
4374;DHT22;2201;51.100;6.814;2023-02-01T03:28:28;5.30;98.20
4374;DHT22;2201;51.100;6.814;2023-02-01T03:30:57;5.30;98.20
4374;DHT22;2201;51.100;6.814;2023-02-01T03:33:26;5.30;98.20
4374;DHT22;2201;51.100;6.814;2023-02-01T03:36:01;5.30;98.20
4374;DHT22;2201;51.100;6.814;2023-02-01T03:38:34;5.30;98.20
4374;DHT22;2201;51.100;6.814;2023-02-01T03:41:12;5.30;98.20
4374;DHT22;2201;51.100;6.814;2023-02-01T03:43:49;5.30;98.20
4374;DHT22;2201;51.100;6.814;2023-02-01T03:46:22;5.30;98.20
4374;DHT22;2201;51.100;6.814;2023-02-01T03:48:51;5.40;98.20
4374;DHT22;2201;51.100;6.814;2023-02-01T03:51:20;5.40;98.20
4374;DHT22;2201;51.100;6.814;2023-02-01T03:53:49;5.40;98.20
4374;DHT22;2201;51.100;6.814;2023-02-01T03:56:19;5.40;98.20
4374;DHT22;2201;51.100;6.814;2023-02-01T03:58:48;5.50;98.20
4374;DHT22;2201;51.100;6.814;2023-02-01T04:01:25;5.50;98.20
4374;DHT22;2201;51.100;6.814;2023-02-01T04:03:51;5.50;98.20
4374;DHT22;2201;51.100;6.814;2023-02-01T04:06:18;5.60;98.20
4374;DHT22;2201;51.100;6.814;2023-02-01T04:08:45;5.60;98.20
4374;DHT22;2201;51.100;6.814;2023-02-01T04:11:14;5.60;98.20
4374;DHT22;2201;51.100;6.814;2023-02-01T04:13:41;5.60;98.20
4374;DHT22;2201;51.100;6.814;2023-02-01T04:16:08;5.70;98.20
4374;DHT22;2201;51.100;6.814;2023-02-01T04:18:35;5.70;98.20
4374;DHT22;2201;51.100;6.814;2023-02-01T04:21:02;5.70;98.20
4374;DHT22;2201;51.100;6.814;2023-02-01T04:23:29;5.80;98.20
4374;DHT22;2201;51.100;6.814;2023-02-01T04:25:59;5.80;98.20
4374;DHT22;2201;51.100;6.814;2023-02-01T04:28:28;5.80;98.20
4374;DHT22;2201;51.100;6.814;2023-02-01T04:30:55;5.80;98.20
4374;DHT22;2201;51.100;6.814;2023-02-01T04:33:23;5.80;98.20
4374;DHT22;2201;51.100;6.814;2023-02-01T04:35:50;5.80;98.20
4374;DHT22;2201;51.100;6.814;2023-02-01T04:38:16;5.80;98.20
4374;DHT22;2201;51.100;6.814;2023-02-01T04:40:45;5.80;98.20
4374;DHT22;2201;51.100;6.814;2023-02-01T04:43:12;5.70;98.20
4374;DHT22;2201;51.100;6.814;2023-02-01T04:45:41;5.70;98.20
4374;DHT22;2201;51.100;6.814;2023-02-01T04:48:08;5.70;98.20
4374;DHT22;2201;51.100;6.814;2023-02-01T04:50:35;5.60;98.20
4374;DHT22;2201;51.100;6.814;2023-02-01T04:53:02;5.60;98.20
4374;DHT22;2201;51.100;6.814;2023-02-01T04:55:29;5.60;98.20
4374;DHT22;2201;51.100;6.814;2023-02-01T04:57:56;5.60;98.20
4374;DHT22;2201;51.100;6.814;2023-02-01T05:00:24;5.50;98.20
4374;DHT22;2201;51.100;6.814;2023-02-01T05:02:52;5.50;98.20
4374;DHT22;2201;51.100;6.814;2023-02-01T05:05:20;5.50;98.20
4374;DHT22;2201;51.100;6.814;2023-02-01T05:07:47;5.50;98.20
4374;DHT22;2201;51.100;6.814;2023-02-01T05:10:14;5.40;98.20
4374;DHT22;2201;51.100;6.814;2023-02-01T05:12:43;5.40;98.20
4374;DHT22;2201;51.100;6.814;2023-02-01T05:15:27;5.40;98.20
4374;DHT22;2201;51.100;6.814;2023-02-01T05:17:55;5.40;98.20
4374;DHT22;2201;51.100;6.814;2023-02-01T05:20:23;5.40;98.20
4374;DHT22;2201;51.100;6.814;2023-02-01T05:22:50;5.30;98.20
4374;DHT22;2201;51.100;6.814;2023-02-01T05:25:17;5.30;98.20
4374;DHT22;2201;51.100;6.814;2023-02-01T05:27:44;5.30;98.20
4374;DHT22;2201;51.100;6.814;2023-02-01T05:30:12;5.30;98.20
4374;DHT22;2201;51.100;6.814;2023-02-01T05:32:40;5.20;98.20
4374;DHT22;2201;51.100;6.814;2023-02-01T05:35:08;5.20;98.20
4374;DHT22;2201;51.100;6.814;2023-02-01T05:37:36;5.20;98.20
4374;DHT22;2201;51.100;6.814;2023-02-01T05:40:03;5.20;98.20
4374;DHT22;2201;51.100;6.814;2023-02-01T05:42:31;5.20;98.20
4374;DHT22;2201;51.100;6.814;2023-02-01T05:44:59;5.20;98.20
4374;DHT22;2201;51.100;6.814;2023-02-01T05:47:26;5.20;98.20
4374;DHT22;2201;51.100;6.814;2023-02-01T05:49:53;5.20;98.20
4374;DHT22;2201;51.100;6.814;2023-02-01T05:52:21;5.20;98.20
4374;DHT22;2201;51.100;6.814;2023-02-01T05:54:48;5.10;98.20
4374;DHT22;2201;51.100;6.814;2023-02-01T05:57:16;5.10;98.20
4374;DHT22;2201;51.100;6.814;2023-02-01T05:59:43;5.10;98.20
4374;DHT22;2201;51.100;6.814;2023-02-01T06:02:11;5.10;98.20
4374;DHT22;2201;51.100;6.814;2023-02-01T06:04:38;5.10;98.20
4374;DHT22;2201;51.100;6.814;2023-02-01T06:07:06;5.10;98.20
4374;DHT22;2201;51.100;6.814;2023-02-01T06:09:36;5.10;98.20
4374;DHT22;2201;51.100;6.814;2023-02-01T06:12:05;5.10;98.20
4374;DHT22;2201;51.100;6.814;2023-02-01T06:14:33;5.00;98.20
4374;DHT22;2201;51.100;6.814;2023-02-01T06:17:00;5.00;98.20
4374;DHT22;2201;51.100;6.814;2023-02-01T06:19:31;5.00;98.20
4374;DHT22;2201;51.100;6.814;2023-02-01T06:22:02;5.00;98.20
4374;DHT22;2201;51.100;6.814;2023-02-01T06:24:36;5.00;98.20
4374;DHT22;2201;51.100;6.814;2023-02-01T06:27:06;5.00;98.20
4374;DHT22;2201;51.100;6.814;2023-02-01T06:29:47;5.00;98.20
4374;DHT22;2201;51.100;6.814;2023-02-01T06:32:50;5.10;98.20
4374;DHT22;2201;51.100;6.814;2023-02-01T06:35:21;5.10;98.20
4374;DHT22;2201;51.100;6.814;2023-02-01T06:37:51;5.20;98.20
4374;DHT22;2201;51.100;6.814;2023-02-01T06:40:23;5.20;98.20
4374;DHT22;2201;51.100;6.814;2023-02-01T06:42:53;5.20;98.20
4374;DHT22;2201;51.100;6.814;2023-02-01T06:45:24;5.30;98.20
4374;DHT22;2201;51.100;6.814;2023-02-01T06:47:51;5.30;98.20
4374;DHT22;2201;51.100;6.814;2023-02-01T06:50:24;5.40;98.20
4374;DHT22;2201;51.100;6.814;2023-02-01T06:53:23;5.40;98.20
4374;DHT22;2201;51.100;6.814;2023-02-01T06:56:16;5.40;98.20
4374;DHT22;2201;51.100;6.814;2023-02-01T06:59:12;5.40;98.20
4374;DHT22;2201;51.100;6.814;2023-02-01T07:01:48;5.40;98.20
4374;DHT22;2201;51.100;6.814;2023-02-01T07:04:50;5.50;98.20
4374;DHT22;2201;51.100;6.814;2023-02-01T07:07:21;5.50;98.20
4374;DHT22;2201;51.100;6.814;2023-02-01T07:09:49;5.50;98.20
4374;DHT22;2201;51.100;6.814;2023-02-01T07:12:18;5.50;98.20
4374;DHT22;2201;51.100;6.814;2023-02-01T07:14:45;5.60;98.20
4374;DHT22;2201;51.100;6.814;2023-02-01T07:17:13;5.60;98.20
4374;DHT22;2201;51.100;6.814;2023-02-01T07:19:40;5.60;98.20
4374;DHT22;2201;51.100;6.814;2023-02-01T07:22:20;5.60;98.20
4374;DHT22;2201;51.100;6.814;2023-02-01T07:24:51;5.60;98.20
4374;DHT22;2201;51.100;6.814;2023-02-01T07:27:20;5.60;98.20
4374;DHT22;2201;51.100;6.814;2023-02-01T07:29:50;5.60;98.20
4374;DHT22;2201;51.100;6.814;2023-02-01T07:32:18;5.70;98.20
4374;DHT22;2201;51.100;6.814;2023-02-01T07:34:46;5.70;98.20
4374;DHT22;2201;51.100;6.814;2023-02-01T07:37:13;5.70;98.20
4374;DHT22;2201;51.100;6.814;2023-02-01T07:39:40;5.70;98.20
4374;DHT22;2201;51.100;6.814;2023-02-01T07:42:07;5.70;98.20
4374;DHT22;2201;51.100;6.814;2023-02-01T07:44:36;5.70;98.20
4374;DHT22;2201;51.100;6.814;2023-02-01T07:47:04;5.70;98.20
4374;DHT22;2201;51.100;6.814;2023-02-01T07:49:31;5.80;98.20
4374;DHT22;2201;51.100;6.814;2023-02-01T07:51:58;5.70;98.20
4374;DHT22;2201;51.100;6.814;2023-02-01T07:54:26;5.80;98.20
4374;DHT22;2201;51.100;6.814;2023-02-01T07:56:53;5.80;98.20
4374;DHT22;2201;51.100;6.814;2023-02-01T07:59:20;5.80;98.20
4374;DHT22;2201;51.100;6.814;2023-02-01T08:01:49;5.80;98.20
4374;DHT22;2201;51.100;6.814;2023-02-01T08:04:15;5.80;98.20
4374;DHT22;2201;51.100;6.814;2023-02-01T08:06:42;5.80;98.20
4374;DHT22;2201;51.100;6.814;2023-02-01T08:09:10;5.80;98.20
4374;DHT22;2201;51.100;6.814;2023-02-01T08:11:38;5.80;98.20
4374;DHT22;2201;51.100;6.814;2023-02-01T08:14:05;5.80;98.20
4374;DHT22;2201;51.100;6.814;2023-02-01T08:16:33;5.80;98.20
4374;DHT22;2201;51.100;6.814;2023-02-01T08:19:04;5.80;98.20
4374;DHT22;2201;51.100;6.814;2023-02-01T08:21:31;5.80;98.20
4374;DHT22;2201;51.100;6.814;2023-02-01T08:24:04;5.80;98.20
4374;DHT22;2201;51.100;6.814;2023-02-01T08:26:32;5.80;98.20
4374;DHT22;2201;51.100;6.814;2023-02-01T08:29:01;5.90;98.20
4374;DHT22;2201;51.100;6.814;2023-02-01T08:31:29;5.90;98.20
4374;DHT22;2201;51.100;6.814;2023-02-01T08:33:57;5.90;98.20
4374;DHT22;2201;51.100;6.814;2023-02-01T08:36:28;5.90;98.20
4374;DHT22;2201;51.100;6.814;2023-02-01T08:38:56;5.90;98.20
4374;DHT22;2201;51.100;6.814;2023-02-01T08:41:25;5.90;98.20
4374;DHT22;2201;51.100;6.814;2023-02-01T08:43:53;6.00;98.20
4374;DHT22;2201;51.100;6.814;2023-02-01T08:46:22;6.00;98.20
4374;DHT22;2201;51.100;6.814;2023-02-01T08:48:50;6.00;98.20
4374;DHT22;2201;51.100;6.814;2023-02-01T08:51:19;6.10;98.20
4374;DHT22;2201;51.100;6.814;2023-02-01T08:53:48;6.10;98.20
4374;DHT22;2201;51.100;6.814;2023-02-01T08:56:16;6.10;98.20
4374;DHT22;2201;51.100;6.814;2023-02-01T08:58:45;6.10;98.20
4374;DHT22;2201;51.100;6.814;2023-02-01T09:01:14;6.20;98.20
4374;DHT22;2201;51.100;6.814;2023-02-01T09:03:42;6.20;98.20
4374;DHT22;2201;51.100;6.814;2023-02-01T09:06:12;6.30;98.20
4374;DHT22;2201;51.100;6.814;2023-02-01T09:08:40;6.30;98.20
4374;DHT22;2201;51.100;6.814;2023-02-01T09:11:12;6.30;98.20
4374;DHT22;2201;51.100;6.814;2023-02-01T09:13:40;6.40;98.20
4374;DHT22;2201;51.100;6.814;2023-02-01T09:16:08;6.40;98.20
4374;DHT22;2201;51.100;6.814;2023-02-01T09:18:35;6.40;98.20
4374;DHT22;2201;51.100;6.814;2023-02-01T09:21:05;6.50;98.20
4374;DHT22;2201;51.100;6.814;2023-02-01T09:23:33;6.50;98.20
4374;DHT22;2201;51.100;6.814;2023-02-01T09:26:01;6.40;98.20
4374;DHT22;2201;51.100;6.814;2023-02-01T09:28:30;6.40;98.20
4374;DHT22;2201;51.100;6.814;2023-02-01T09:30:58;6.40;98.20
4374;DHT22;2201;51.100;6.814;2023-02-01T09:33:26;6.40;98.20
4374;DHT22;2201;51.100;6.814;2023-02-01T09:35:56;6.40;98.20
4374;DHT22;2201;51.100;6.814;2023-02-01T09:38:24;6.40;98.20
4374;DHT22;2201;51.100;6.814;2023-02-01T09:40:55;6.40;98.20
4374;DHT22;2201;51.100;6.814;2023-02-01T09:43:35;6.50;98.20
4374;DHT22;2201;51.100;6.814;2023-02-01T09:46:22;6.50;98.20
4374;DHT22;2201;51.100;6.814;2023-02-01T09:48:54;6.50;98.20
4374;DHT22;2201;51.100;6.814;2023-02-01T09:51:24;6.60;98.20
4374;DHT22;2201;51.100;6.814;2023-02-01T09:54:00;6.60;98.20
4374;DHT22;2201;51.100;6.814;2023-02-01T09:56:34;6.60;98.20
4374;DHT22;2201;51.100;6.814;2023-02-01T09:59:09;6.60;98.20
4374;DHT22;2201;51.100;6.814;2023-02-01T10:01:37;6.60;98.20
4374;DHT22;2201;51.100;6.814;2023-02-01T10:04:07;6.60;98.20
4374;DHT22;2201;51.100;6.814;2023-02-01T10:06:44;6.60;98.20
4374;DHT22;2201;51.100;6.814;2023-02-01T10:09:25;6.60;98.20
4374;DHT22;2201;51.100;6.814;2023-02-01T10:12:29;6.70;98.20
4374;DHT22;2201;51.100;6.814;2023-02-01T10:15:20;6.70;98.20
4374;DHT22;2201;51.100;6.814;2023-02-01T10:18:00;6.80;98.20
4374;DHT22;2201;51.100;6.814;2023-02-01T10:20:35;6.80;98.20
4374;DHT22;2201;51.100;6.814;2023-02-01T10:23:11;6.90;98.20
4374;DHT22;2201;51.100;6.814;2023-02-01T10:25:44;7.00;98.20
4374;DHT22;2201;51.100;6.814;2023-02-01T10:28:17;7.10;98.20
4374;DHT22;2201;51.100;6.814;2023-02-01T10:30:49;7.20;98.20
4374;DHT22;2201;51.100;6.814;2023-02-01T10:33:25;7.40;98.20
4374;DHT22;2201;51.100;6.814;2023-02-01T10:35:58;7.50;98.20
4374;DHT22;2201;51.100;6.814;2023-02-01T10:38:32;7.60;98.20
4374;DHT22;2201;51.100;6.814;2023-02-01T10:41:03;7.70;98.20
4374;DHT22;2201;51.100;6.814;2023-02-01T10:43:31;7.70;98.20
4374;DHT22;2201;51.100;6.814;2023-02-01T10:46:01;7.70;98.20
4374;DHT22;2201;51.100;6.814;2023-02-01T10:48:29;7.70;98.20
4374;DHT22;2201;51.100;6.814;2023-02-01T10:51:00;7.80;98.20
4374;DHT22;2201;51.100;6.814;2023-02-01T10:53:31;7.80;98.20
4374;DHT22;2201;51.100;6.814;2023-02-01T10:56:06;7.70;98.20
4374;DHT22;2201;51.100;6.814;2023-02-01T10:58:36;7.70;98.20
4374;DHT22;2201;51.100;6.814;2023-02-01T11:01:06;7.70;98.20
4374;DHT22;2201;51.100;6.814;2023-02-01T11:03:39;7.70;98.20
4374;DHT22;2201;51.100;6.814;2023-02-01T11:06:13;7.70;98.20
4374;DHT22;2201;51.100;6.814;2023-02-01T11:08:46;7.70;98.20
4374;DHT22;2201;51.100;6.814;2023-02-01T11:11:15;7.60;98.20
4374;DHT22;2201;51.100;6.814;2023-02-01T11:13:43;7.60;98.20
4374;DHT22;2201;51.100;6.814;2023-02-01T11:16:15;7.70;98.20
4374;DHT22;2201;51.100;6.814;2023-02-01T11:18:42;7.70;98.20
4374;DHT22;2201;51.100;6.814;2023-02-01T11:21:10;7.70;98.20
4374;DHT22;2201;51.100;6.814;2023-02-01T11:23:43;7.70;98.20
4374;DHT22;2201;51.100;6.814;2023-02-01T11:26:13;7.70;98.20
4374;DHT22;2201;51.100;6.814;2023-02-01T11:28:46;7.80;98.20
4374;DHT22;2201;51.100;6.814;2023-02-01T11:31:19;7.90;98.20
4374;DHT22;2201;51.100;6.814;2023-02-01T11:33:52;8.00;98.20
4374;DHT22;2201;51.100;6.814;2023-02-01T11:36:24;8.10;98.20
4374;DHT22;2201;51.100;6.814;2023-02-01T11:38:54;8.20;98.20
4374;DHT22;2201;51.100;6.814;2023-02-01T11:41:33;8.10;98.20
4374;DHT22;2201;51.100;6.814;2023-02-01T11:44:19;8.00;98.20
4374;DHT22;2201;51.100;6.814;2023-02-01T11:46:48;8.00;98.20
4374;DHT22;2201;51.100;6.814;2023-02-01T11:49:21;8.00;98.20
4374;DHT22;2201;51.100;6.814;2023-02-01T11:52:00;8.10;98.20
4374;DHT22;2201;51.100;6.814;2023-02-01T11:54:43;8.10;98.20
4374;DHT22;2201;51.100;6.814;2023-02-01T11:57:23;8.00;98.20
4374;DHT22;2201;51.100;6.814;2023-02-01T12:00:12;8.00;98.20
4374;DHT22;2201;51.100;6.814;2023-02-01T12:03:08;7.90;98.20
4374;DHT22;2201;51.100;6.814;2023-02-01T12:05:50;7.90;98.20
4374;DHT22;2201;51.100;6.814;2023-02-01T12:08:41;7.90;98.20
4374;DHT22;2201;51.100;6.814;2023-02-01T12:11:31;7.90;98.20
4374;DHT22;2201;51.100;6.814;2023-02-01T12:14:10;7.90;98.20
4374;DHT22;2201;51.100;6.814;2023-02-01T12:16:49;8.00;98.20
4374;DHT22;2201;51.100;6.814;2023-02-01T12:19:36;8.00;98.20
4374;DHT22;2201;51.100;6.814;2023-02-01T12:22:19;8.10;98.20
4374;DHT22;2201;51.100;6.814;2023-02-01T12:25:06;8.10;98.20
4374;DHT22;2201;51.100;6.814;2023-02-01T12:28:03;8.20;98.20
4374;DHT22;2201;51.100;6.814;2023-02-01T12:30:51;8.20;98.20
4374;DHT22;2201;51.100;6.814;2023-02-01T12:33:29;8.20;98.20
4374;DHT22;2201;51.100;6.814;2023-02-01T12:36:12;8.20;98.20
4374;DHT22;2201;51.100;6.814;2023-02-01T12:38:55;8.20;98.20
4374;DHT22;2201;51.100;6.814;2023-02-01T12:41:42;8.10;98.20
4374;DHT22;2201;51.100;6.814;2023-02-01T12:44:19;8.10;98.20
4374;DHT22;2201;51.100;6.814;2023-02-01T12:46:52;8.10;98.20
4374;DHT22;2201;51.100;6.814;2023-02-01T12:49:23;8.00;98.20
4374;DHT22;2201;51.100;6.814;2023-02-01T12:52:00;8.00;98.20
4374;DHT22;2201;51.100;6.814;2023-02-01T12:54:34;8.00;98.20
4374;DHT22;2201;51.100;6.814;2023-02-01T12:57:11;8.00;98.20
4374;DHT22;2201;51.100;6.814;2023-02-01T13:00:02;8.00;98.20
4374;DHT22;2201;51.100;6.814;2023-02-01T13:02:38;8.00;98.20
4374;DHT22;2201;51.100;6.814;2023-02-01T13:05:14;8.00;98.20
4374;DHT22;2201;51.100;6.814;2023-02-01T13:07:49;8.00;98.20
4374;DHT22;2201;51.100;6.814;2023-02-01T13:10:21;8.00;98.20
4374;DHT22;2201;51.100;6.814;2023-02-01T13:12:54;8.00;98.20
4374;DHT22;2201;51.100;6.814;2023-02-01T13:15:28;8.10;98.20
4374;DHT22;2201;51.100;6.814;2023-02-01T13:18:00;8.10;98.20
4374;DHT22;2201;51.100;6.814;2023-02-01T13:20:31;8.10;98.20
4374;DHT22;2201;51.100;6.814;2023-02-01T13:23:04;8.10;98.20
4374;DHT22;2201;51.100;6.814;2023-02-01T13:25:38;8.10;98.20
4374;DHT22;2201;51.100;6.814;2023-02-01T13:28:10;8.00;98.20
4374;DHT22;2201;51.100;6.814;2023-02-01T13:31:00;8.00;98.20
4374;DHT22;2201;51.100;6.814;2023-02-01T13:33:49;8.00;98.20
4374;DHT22;2201;51.100;6.814;2023-02-01T13:36:41;8.00;98.20
4374;DHT22;2201;51.100;6.814;2023-02-01T13:39:39;8.00;98.20
4374;DHT22;2201;51.100;6.814;2023-02-01T13:42:15;7.90;98.20
4374;DHT22;2201;51.100;6.814;2023-02-01T13:44:46;7.90;98.20
4374;DHT22;2201;51.100;6.814;2023-02-01T13:47:25;7.90;98.20
4374;DHT22;2201;51.100;6.814;2023-02-01T13:49:56;7.90;98.20
4374;DHT22;2201;51.100;6.814;2023-02-01T13:52:35;7.90;98.20
4374;DHT22;2201;51.100;6.814;2023-02-01T13:55:24;7.90;98.20
4374;DHT22;2201;51.100;6.814;2023-02-01T13:58:03;7.90;98.20
4374;DHT22;2201;51.100;6.814;2023-02-01T14:00:33;7.90;98.20
4374;DHT22;2201;51.100;6.814;2023-02-01T14:03:13;8.00;98.20
4374;DHT22;2201;51.100;6.814;2023-02-01T14:09:13;8.00;98.20
4374;DHT22;2201;51.100;6.814;2023-02-01T14:11:48;8.00;98.20
4374;DHT22;2201;51.100;6.814;2023-02-01T14:14:43;8.00;98.20
4374;DHT22;2201;51.100;6.814;2023-02-01T14:23:24;8.10;98.20
4374;DHT22;2201;51.100;6.814;2023-02-01T14:26:14;8.10;98.20
4374;DHT22;2201;51.100;6.814;2023-02-01T14:28:57;8.00;98.20
4374;DHT22;2201;51.100;6.814;2023-02-01T14:31:39;8.10;98.20
4374;DHT22;2201;51.100;6.814;2023-02-01T14:34:18;8.10;98.20
4374;DHT22;2201;51.100;6.814;2023-02-01T14:36:50;8.10;98.20
4374;DHT22;2201;51.100;6.814;2023-02-01T14:39:30;8.00;98.20
4374;DHT22;2201;51.100;6.814;2023-02-01T14:42:02;8.10;98.20
4374;DHT22;2201;51.100;6.814;2023-02-01T14:44:36;8.10;98.20
4374;DHT22;2201;51.100;6.814;2023-02-01T14:47:29;8.10;98.20
4374;DHT22;2201;51.100;6.814;2023-02-01T14:50:17;8.10;98.20
4374;DHT22;2201;51.100;6.814;2023-02-01T14:52:49;8.10;98.20
4374;DHT22;2201;51.100;6.814;2023-02-01T14:55:21;8.10;98.20
4374;DHT22;2201;51.100;6.814;2023-02-01T14:57:55;8.10;98.20
4374;DHT22;2201;51.100;6.814;2023-02-01T15:00:27;8.10;98.20
4374;DHT22;2201;51.100;6.814;2023-02-01T15:03:12;8.10;98.20
4374;DHT22;2201;51.100;6.814;2023-02-01T15:05:42;8.10;98.20
4374;DHT22;2201;51.100;6.814;2023-02-01T15:08:16;8.10;98.20
4374;DHT22;2201;51.100;6.814;2023-02-01T15:10:48;8.10;98.20
4374;DHT22;2201;51.100;6.814;2023-02-01T15:13:21;8.10;98.20
4374;DHT22;2201;51.100;6.814;2023-02-01T15:16:07;8.10;98.20
4374;DHT22;2201;51.100;6.814;2023-02-01T15:18:37;8.10;98.20
4374;DHT22;2201;51.100;6.814;2023-02-01T15:21:06;8.10;98.20
4374;DHT22;2201;51.100;6.814;2023-02-01T15:23:33;8.00;98.20
4374;DHT22;2201;51.100;6.814;2023-02-01T15:26:00;8.10;98.20
4374;DHT22;2201;51.100;6.814;2023-02-01T15:28:28;8.10;98.20
4374;DHT22;2201;51.100;6.814;2023-02-01T15:30:57;8.10;98.20
4374;DHT22;2201;51.100;6.814;2023-02-01T15:33:27;8.10;98.20
4374;DHT22;2201;51.100;6.814;2023-02-01T15:35:56;8.10;98.20
4374;DHT22;2201;51.100;6.814;2023-02-01T15:38:40;8.10;98.20
4374;DHT22;2201;51.100;6.814;2023-02-01T15:41:10;8.10;98.20
4374;DHT22;2201;51.100;6.814;2023-02-01T15:43:43;8.10;98.20
4374;DHT22;2201;51.100;6.814;2023-02-01T15:46:15;8.10;98.20
4374;DHT22;2201;51.100;6.814;2023-02-01T15:48:48;8.10;98.20
4374;DHT22;2201;51.100;6.814;2023-02-01T15:51:18;8.10;98.20
4374;DHT22;2201;51.100;6.814;2023-02-01T15:53:50;8.10;98.20
4374;DHT22;2201;51.100;6.814;2023-02-01T15:56:23;8.10;98.20
4374;DHT22;2201;51.100;6.814;2023-02-01T15:58:53;8.10;98.20
4374;DHT22;2201;51.100;6.814;2023-02-01T16:01:22;8.20;98.20
4374;DHT22;2201;51.100;6.814;2023-02-01T16:04:03;8.20;98.20
4374;DHT22;2201;51.100;6.814;2023-02-01T16:06:32;8.20;98.20
4374;DHT22;2201;51.100;6.814;2023-02-01T16:09:09;8.20;98.20
4374;DHT22;2201;51.100;6.814;2023-02-01T16:11:47;8.20;98.20
4374;DHT22;2201;51.100;6.814;2023-02-01T16:14:14;8.20;98.20
4374;DHT22;2201;51.100;6.814;2023-02-01T16:17:05;8.20;98.20
4374;DHT22;2201;51.100;6.814;2023-02-01T16:19:43;8.20;98.20
4374;DHT22;2201;51.100;6.814;2023-02-01T16:22:11;8.20;98.20
4374;DHT22;2201;51.100;6.814;2023-02-01T16:24:40;8.20;98.20
4374;DHT22;2201;51.100;6.814;2023-02-01T16:27:09;8.20;98.20
4374;DHT22;2201;51.100;6.814;2023-02-01T16:29:37;8.20;98.20
4374;DHT22;2201;51.100;6.814;2023-02-01T16:32:15;8.10;98.20
4374;DHT22;2201;51.100;6.814;2023-02-01T16:34:44;8.10;98.20
4374;DHT22;2201;51.100;6.814;2023-02-01T16:37:16;8.10;98.20
4374;DHT22;2201;51.100;6.814;2023-02-01T16:39:46;8.10;98.20
4374;DHT22;2201;51.100;6.814;2023-02-01T16:42:15;8.10;98.20
4374;DHT22;2201;51.100;6.814;2023-02-01T16:44:43;8.10;98.20
4374;DHT22;2201;51.100;6.814;2023-02-01T16:47:13;8.10;98.20
4374;DHT22;2201;51.100;6.814;2023-02-01T16:49:44;8.10;98.20
4374;DHT22;2201;51.100;6.814;2023-02-01T16:52:14;8.10;98.20
4374;DHT22;2201;51.100;6.814;2023-02-01T16:54:43;8.10;98.20
4374;DHT22;2201;51.100;6.814;2023-02-01T16:57:13;8.10;98.20
4374;DHT22;2201;51.100;6.814;2023-02-01T16:59:42;8.00;98.20
4374;DHT22;2201;51.100;6.814;2023-02-01T17:02:12;8.00;98.20
4374;DHT22;2201;51.100;6.814;2023-02-01T17:04:40;8.00;98.20
4374;DHT22;2201;51.100;6.814;2023-02-01T17:07:13;8.00;98.20
4374;DHT22;2201;51.100;6.814;2023-02-01T17:09:41;8.00;98.20
4374;DHT22;2201;51.100;6.814;2023-02-01T17:12:23;8.00;98.20